Time;durP1;ratioP1;P1;durP2;ratioP2;P2;SDS_P1;SDS_P2;PMS_P1;PMS_P2;Temp;Humidity;BMP_temperature;BMP_pressure;BME280_temperature;BME280_humidity;BME280_pressure;Samples;Min_cycle;Max_cycle;Signal;HPM_P1;HPM_P2
2023/06/15 00:02:13;;;;;;;5.15;2.50;;;18.90;71.50;;;;;;5053556;28;20068;-63
2023/06/15 00:04:40;;;;;;;7.25;2.88;;;18.90;71.60;;;;;;5053134;28;20544;-62
2023/06/15 00:07:06;;;;;;;5.78;2.90;;;18.90;71.80;;;;;;5055800;28;20405;-62
2023/06/15 00:09:32;;;;;;;9.43;3.03;;;18.80;71.80;;;;;;5060689;28;20040;-62
2023/06/15 00:11:58;;;;;;;6.25;3.10;;;18.80;71.80;;;;;;5062438;28;20051;-62
2023/06/15 00:14:23;;;;;;;5.82;3.05;;;18.70;71.90;;;;;;5049868;28;20615;-62
2023/06/15 00:16:52;;;;;;;11.20;3.03;;;18.60;72.10;;;;;;5074585;28;20036;-62
2023/06/15 00:19:19;;;;;;;7.18;3.13;;;18.60;72.20;;;;;;5058592;28;20304;-62
2023/06/15 00:21:47;;;;;;;5.53;2.60;;;18.60;72.20;;;;;;5057113;28;20045;-62
2023/06/15 00:24:14;;;;;;;4.50;2.72;;;18.60;72.30;;;;;;5062086;28;20044;-62
2023/06/15 00:26:40;;;;;;;7.55;2.67;;;18.50;72.40;;;;;;5052692;28;20119;-63
2023/06/15 00:29:05;;;;;;;6.38;3.10;;;18.50;72.50;;;;;;5055555;28;20123;-62
2023/06/15 00:31:31;;;;;;;4.97;2.80;;;18.50;72.60;;;;;;5064456;28;20452;-62
2023/06/15 00:33:57;;;;;;;5.38;2.78;;;18.50;72.70;;;;;;5071681;28;20037;-63
2023/06/15 00:36:23;;;;;;;6.00;2.97;;;18.50;72.80;;;;;;5072391;28;20045;-62
2023/06/15 00:38:48;;;;;;;6.20;2.70;;;18.40;72.90;;;;;;5066202;28;20481;-62
2023/06/15 00:41:14;;;;;;;4.55;2.80;;;18.40;73.00;;;;;;5060072;28;20059;-62
2023/06/15 00:43:41;;;;;;;5.47;2.95;;;18.40;73.00;;;;;;5040569;28;20036;-62
2023/06/15 00:46:07;;;;;;;6.60;2.85;;;18.40;73.00;;;;;;5083173;28;20130;-62
2023/06/15 00:48:33;;;;;;;7.80;3.08;;;18.30;73.00;;;;;;5055423;28;20090;-62
2023/06/15 00:50:59;;;;;;;5.68;3.03;;;18.30;73.20;;;;;;5053983;28;20040;-62
2023/06/15 00:53:25;;;;;;;7.18;2.72;;;18.30;73.30;;;;;;5057131;28;20051;-62
2023/06/15 00:55:51;;;;;;;6.25;3.00;;;18.30;73.40;;;;;;5073405;28;20383;-62
2023/06/15 00:58:18;;;;;;;9.88;3.30;;;18.20;73.40;;;;;;5088398;28;20081;-62
2023/06/15 01:00:48;;;;;;;4.97;2.88;;;18.20;73.50;;;;;;5073896;28;20464;-62
2023/06/15 01:03:20;;;;;;;6.53;3.10;;;18.20;73.60;;;;;;5048292;28;20050;-62
2023/06/15 01:05:47;;;;;;;6.38;3.92;;;18.10;73.70;;;;;;5059030;28;20044;-62
2023/06/15 01:08:15;;;;;;;7.18;3.03;;;18.10;73.80;;;;;;5052291;28;20041;-62
2023/06/15 01:10:42;;;;;;;4.90;2.70;;;18.10;74.00;;;;;;5032712;28;20048;-62
2023/06/15 01:13:12;;;;;;;4.03;3.00;;;18.10;74.10;;;;;;5070202;28;20036;-62
2023/06/15 01:15:39;;;;;;;7.18;3.20;;;18.00;74.20;;;;;;5069919;28;20409;-62
2023/06/15 01:18:05;;;;;;;5.40;3.03;;;18.00;74.40;;;;;;5070705;28;20048;-62
2023/06/15 01:20:39;;;;;;;6.22;2.78;;;17.90;74.50;;;;;;5067008;28;20505;-62
2023/06/15 01:23:28;;;;;;;9.18;3.42;;;17.90;74.60;;;;;;5061539;28;20047;-62
2023/06/15 01:26:06;;;;;;;6.38;3.17;;;17.90;74.60;;;;;;5073239;28;20056;-62
2023/06/15 01:28:40;;;;;;;6.20;2.75;;;17.80;74.70;;;;;;5068032;28;20033;-63
2023/06/15 01:31:06;;;;;;;5.72;3.10;;;17.80;74.90;;;;;;5070993;28;20052;-63
2023/06/15 01:33:32;;;;;;;6.13;3.40;;;17.80;75.00;;;;;;5058536;28;20040;-62
2023/06/15 01:36:00;;;;;;;8.10;3.38;;;17.80;75.10;;;;;;5063099;28;20093;-62
2023/06/15 01:38:29;;;;;;;10.27;3.10;;;17.70;75.10;;;;;;5063187;28;20090;-62
2023/06/15 01:40:56;;;;;;;9.43;3.80;;;17.70;75.30;;;;;;5078296;28;20068;-62
2023/06/15 01:43:25;;;;;;;8.00;3.40;;;17.70;75.40;;;;;;5035131;28;20105;-62
2023/06/15 01:45:53;;;;;;;9.55;3.17;;;17.70;75.60;;;;;;5070521;28;20483;-62
2023/06/15 01:48:19;;;;;;;5.57;3.30;;;17.60;75.70;;;;;;5061226;28;20367;-62
2023/06/15 01:50:45;;;;;;;7.82;3.20;;;17.60;75.90;;;;;;5057883;28;20044;-61
2023/06/15 01:53:11;;;;;;;5.88;3.25;;;17.60;76.00;;;;;;5047743;28;20044;-62
2023/06/15 01:55:36;;;;;;;8.25;3.40;;;17.50;76.10;;;;;;5053483;28;20512;-62
2023/06/15 01:58:02;;;;;;;7.72;3.28;;;17.50;76.30;;;;;;5056206;28;20051;-62
2023/06/15 02:00:28;;;;;;;6.93;3.40;;;17.40;76.40;;;;;;5070791;28;20397;-62
2023/06/15 02:02:54;;;;;;;6.85;3.42;;;17.40;76.50;;;;;;5054355;28;20052;-62
2023/06/15 02:05:20;;;;;;;5.80;3.30;;;17.40;77.20;;;;;;5050050;28;20121;-62
2023/06/15 02:07:46;;;;;;;5.45;3.50;;;17.30;76.90;;;;;;5064344;28;20050;-62
2023/06/15 02:10:11;;;;;;;5.60;3.38;;;17.30;77.00;;;;;;5064213;28;20490;-62
2023/06/15 02:12:37;;;;;;;6.22;3.13;;;17.20;77.10;;;;;;5069021;28;20036;-62
2023/06/15 02:15:04;;;;;;;6.15;3.60;;;17.30;77.30;;;;;;5057769;28;20117;-62
2023/06/15 02:17:33;;;;;;;8.65;4.10;;;17.20;77.30;;;;;;5071387;28;20379;-62
2023/06/15 02:19:59;;;;;;;8.25;3.25;;;17.20;77.50;;;;;;5084855;28;20036;-62
2023/06/15 02:22:25;;;;;;;7.55;3.53;;;17.20;77.60;;;;;;5053385;28;20039;-62
2023/06/15 02:24:51;;;;;;;8.98;3.80;;;17.20;77.90;;;;;;5065582;28;20040;-62
2023/06/15 02:27:16;;;;;;;5.25;3.20;;;17.10;78.00;;;;;;5054263;28;20063;-62
2023/06/15 02:29:42;;;;;;;5.93;3.53;;;17.10;78.10;;;;;;5076435;28;20060;-62
2023/06/15 02:32:09;;;;;;;6.57;3.63;;;17.10;78.10;;;;;;5052339;28;20450;-62
2023/06/15 02:34:36;;;;;;;9.20;3.30;;;17.00;78.20;;;;;;5078691;28;20064;-62
2023/06/15 02:37:02;;;;;;;7.53;3.65;;;17.00;78.40;;;;;;5076846;28;20509;-62
2023/06/15 02:39:28;;;;;;;7.30;3.30;;;17.00;78.50;;;;;;5041252;28;20036;-62
2023/06/15 02:41:54;;;;;;;7.68;3.75;;;17.00;78.70;;;;;;5060470;28;20032;-62
2023/06/15 02:44:21;;;;;;;8.85;3.95;;;16.90;78.80;;;;;;5081441;28;20421;-62
2023/06/15 02:46:46;;;;;;;6.93;4.00;;;16.90;79.50;;;;;;5068588;28;20539;-62
2023/06/15 02:49:12;;;;;;;6.53;3.75;;;16.90;79.20;;;;;;5073964;28;20067;-62
2023/06/15 02:51:40;;;;;;;8.20;3.55;;;16.80;79.20;;;;;;5090731;22;20127;-62
2023/06/15 02:54:08;;;;;;;7.00;4.03;;;16.80;79.30;;;;;;5076396;28;20498;-62
2023/06/15 02:56:37;;;;;;;8.63;4.15;;;16.80;79.40;;;;;;5043401;28;20048;-62
2023/06/15 02:59:03;;;;;;;9.95;4.15;;;16.80;79.60;;;;;;5050439;28;20044;-62
2023/06/15 03:01:36;;;;;;;6.85;3.85;;;16.70;79.80;;;;;;5035117;28;20036;-62
2023/06/15 03:04:03;;;;;;;8.43;3.95;;;16.70;79.90;;;;;;5050997;28;20040;-62
2023/06/15 03:06:33;;;;;;;7.57;4.07;;;16.70;80.10;;;;;;5047775;28;20032;-63
2023/06/15 03:08:59;;;;;;;8.23;3.78;;;16.60;80.10;;;;;;5052263;28;20033;-63
2023/06/15 03:11:26;;;;;;;5.93;4.13;;;16.60;80.20;;;;;;5056069;28;20045;-63
2023/06/15 03:13:53;;;;;;;8.15;4.00;;;16.50;80.50;;;;;;5059860;28;20041;-63
2023/06/15 03:16:19;;;;;;;7.35;3.88;;;16.50;80.60;;;;;;5054204;28;20543;-62
2023/06/15 03:18:45;;;;;;;7.28;3.95;;;16.50;80.70;;;;;;5032945;28;20045;-62
2023/06/15 03:21:12;;;;;;;7.60;4.07;;;16.50;80.90;;;;;;5061097;28;20044;-62
2023/06/15 03:23:39;;;;;;;7.57;4.30;;;16.50;81.10;;;;;;5050861;28;20041;-63
2023/06/15 03:26:06;;;;;;;9.65;4.63;;;16.50;81.40;;;;;;5044197;28;20494;-62
2023/06/15 03:28:38;;;;;;;7.68;4.13;;;16.50;81.40;;;;;;5049888;28;20037;-62
2023/06/15 03:31:04;;;;;;;7.20;4.10;;;16.50;81.50;;;;;;5060028;28;20029;-62
2023/06/15 03:33:30;;;;;;;11.15;4.40;;;16.50;81.60;;;;;;5048262;28;20399;-62
2023/06/15 03:35:57;;;;;;;8.68;4.40;;;16.50;81.70;;;;;;5047155;28;20095;-62
2023/06/15 03:38:23;;;;;;;8.00;3.70;;;16.50;81.80;;;;;;5045506;28;20041;-62
2023/06/15 03:40:49;;;;;;;6.55;3.70;;;16.40;82.00;;;;;;5058116;28;20127;-62
2023/06/15 03:43:15;;;;;;;6.68;4.13;;;16.50;82.00;;;;;;5037370;28;20397;-62
2023/06/15 03:45:40;;;;;;;5.95;4.00;;;16.40;82.00;;;;;;5052024;28;20108;-62
2023/06/15 03:48:06;;;;;;;7.85;4.32;;;16.50;82.30;;;;;;5034562;28;20470;-63
2023/06/15 03:50:33;;;;;;;6.63;4.07;;;16.40;82.30;;;;;;5047742;28;20048;-63
2023/06/15 03:52:58;;;;;;;8.10;4.60;;;16.40;82.50;;;;;;5051253;28;20036;-62
2023/06/15 03:55:25;;;;;;;7.35;4.10;;;16.40;82.60;;;;;;5060525;28;20086;-62
2023/06/15 03:57:51;;;;;;;8.27;4.03;;;16.40;82.80;;;;;;5060696;28;20124;-62
2023/06/15 04:00:16;;;;;;;9.63;3.70;;;16.50;83.00;;;;;;5052592;28;20130;-62
2023/06/15 04:02:42;;;;;;;7.07;4.30;;;16.40;82.90;;;;;;5031540;28;20038;-62
2023/06/15 04:05:09;;;;;;;8.35;4.05;;;16.40;83.00;;;;;;5069867;28;20112;-63
2023/06/15 04:07:35;;;;;;;8.57;4.50;;;16.40;83.00;;;;;;5050041;28;20098;-63
2023/06/15 04:10:01;;;;;;;9.57;4.60;;;16.40;83.10;;;;;;5053961;28;20446;-62
2023/06/15 04:12:26;;;;;;;8.18;4.72;;;16.40;83.20;;;;;;5060919;28;20089;-62
2023/06/15 04:14:52;;;;;;;9.20;4.53;;;16.50;83.40;;;;;;5053968;28;20059;-62
2023/06/15 04:17:18;;;;;;;9.55;4.50;;;16.50;83.40;;;;;;5060806;28;20037;-62
2023/06/15 04:19:46;;;;;;;7.38;4.63;;;16.50;83.50;;;;;;5051880;28;20047;-62
2023/06/15 04:22:11;;;;;;;7.28;4.40;;;16.50;83.60;;;;;;5031475;28;20071;-62
2023/06/15 04:24:37;;;;;;;14.77;4.85;;;16.50;83.80;;;;;;5059458;28;20488;-62
2023/06/15 04:27:03;;;;;;;7.97;4.30;;;16.50;83.90;;;;;;5056709;28;20403;-62
2023/06/15 04:29:31;;;;;;;10.05;4.50;;;16.50;84.00;;;;;;5039019;28;20141;-62
2023/06/15 04:31:57;;;;;;;8.68;4.85;;;16.50;84.10;;;;;;5051227;28;20039;-62
2023/06/15 04:34:24;;;;;;;7.97;4.68;;;16.50;84.30;;;;;;5051794;28;20048;-62
2023/06/15 04:36:50;;;;;;;7.32;4.32;;;16.50;84.30;;;;;;5032134;28;20555;-62
2023/06/15 04:39:16;;;;;;;10.65;4.32;;;16.50;84.50;;;;;;5061454;28;20032;-62
2023/06/15 04:41:42;;;;;;;8.57;4.57;;;16.50;84.60;;;;;;5047443;28;20076;-62
2023/06/15 04:44:08;;;;;;;8.57;4.78;;;16.50;84.80;;;;;;5033406;28;20068;-62
2023/06/15 04:46:38;;;;;;;11.15;4.85;;;16.50;84.90;;;;;;5024727;28;20103;-62
2023/06/15 04:49:03;;;;;;;14.10;4.68;;;16.50;85.10;;;;;;5052173;28;20570;-62
2023/06/15 04:51:30;;;;;;;9.05;4.70;;;16.50;85.20;;;;;;5046685;28;20123;-62
2023/06/15 04:53:56;;;;;;;8.38;4.78;;;16.50;85.30;;;;;;5056104;28;20443;-62
2023/06/15 04:56:22;;;;;;;12.75;4.63;;;16.50;85.40;;;;;;5049240;28;20098;-62
2023/06/15 04:58:48;;;;;;;10.40;4.40;;;16.60;85.40;;;;;;5056027;28;20043;-62
2023/06/15 05:01:14;;;;;;;8.23;4.70;;;16.60;85.50;;;;;;5046992;28;20033;-62
2023/06/15 05:03:40;;;;;;;10.48;4.75;;;16.60;85.60;;;;;;5043179;28;20040;-62
2023/06/15 05:06:07;;;;;;;11.45;4.47;;;16.60;85.60;;;;;;5042869;28;20104;-62
2023/06/15 05:08:33;;;;;;;6.10;4.38;;;16.60;85.70;;;;;;5030133;28;20119;-62
2023/06/15 05:10:59;;;;;;;8.43;5.90;;;16.60;85.90;;;;;;5057923;28;20111;-63
2023/06/15 05:13:25;;;;;;;7.63;4.47;;;16.70;86.00;;;;;;5051380;28;20124;-62
2023/06/15 05:15:51;;;;;;;11.73;4.90;;;16.70;86.10;;;;;;5044273;28;20051;-62
2023/06/15 05:18:18;;;;;;;9.20;4.57;;;16.70;86.10;;;;;;5035972;28;20486;-62
2023/06/15 05:20:44;;;;;;;8.50;4.43;;;16.70;86.10;;;;;;5033138;28;20051;-62
2023/06/15 05:23:09;;;;;;;9.90;4.70;;;16.70;86.10;;;;;;5047793;28;20032;-62
2023/06/15 05:25:35;;;;;;;8.52;4.38;;;16.80;86.10;;;;;;5048701;28;20127;-62
2023/06/15 05:28:00;;;;;;;7.68;4.00;;;16.70;86.00;;;;;;5037226;28;20549;-62
2023/06/15 05:30:26;;;;;;;10.27;4.80;;;16.80;86.10;;;;;;5038726;28;20046;-62
2023/06/15 05:32:55;;;;;;;9.23;3.80;;;16.80;86.20;;;;;;5041560;28;20033;-62
2023/06/15 05:35:21;;;;;;;7.40;4.07;;;16.80;86.20;;;;;;5052182;28;20069;-62
2023/06/15 05:37:48;;;;;;;8.90;3.97;;;16.90;86.10;;;;;;5055207;28;20131;-62
2023/06/15 05:40:13;;;;;;;8.75;4.00;;;16.80;85.90;;;;;;5051196;28;20461;-63
2023/06/15 05:42:39;;;;;;;7.70;4.30;;;16.90;85.90;;;;;;5049984;28;20121;-63
2023/06/15 05:45:05;;;;;;;8.13;4.03;;;17.00;86.00;;;;;;5049148;28;20136;-63
2023/06/15 05:47:32;;;;;;;8.02;4.22;;;17.00;86.10;;;;;;5028303;28;20091;-63
2023/06/15 05:49:57;;;;;;;10.25;4.00;;;17.00;85.80;;;;;;5046681;28;20045;-63
2023/06/15 05:52:23;;;;;;;8.43;3.83;;;17.10;86.00;;;;;;5045408;28;20045;-62
2023/06/15 05:54:49;;;;;;;8.32;4.10;;;17.10;86.00;;;;;;5055386;28;20040;-62
2023/06/15 05:57:15;;;;;;;9.23;3.92;;;17.10;85.90;;;;;;5032932;28;20048;-63
2023/06/15 05:59:40;;;;;;;9.50;3.80;;;17.20;85.80;;;;;;5034604;28;20107;-63
2023/06/15 06:02:07;;;;;;;8.15;3.60;;;17.20;85.70;;;;;;5044770;28;20036;-62
2023/06/15 06:04:34;;;;;;;7.38;4.10;;;17.20;85.50;;;;;;5053302;28;20391;-62
2023/06/15 06:07:00;;;;;;;5.90;3.35;;;17.30;86.00;;;;;;5032529;28;20041;-62
2023/06/15 06:09:26;;;;;;;8.02;3.58;;;17.30;85.10;;;;;;5056518;28;20038;-62
2023/06/15 06:11:51;;;;;;;6.53;3.83;;;17.30;85.10;;;;;;5034977;28;20124;-63
2023/06/15 06:14:17;;;;;;;10.43;3.50;;;17.40;85.10;;;;;;5050070;28;20040;-62
2023/06/15 06:16:43;;;;;;;5.25;3.38;;;17.40;84.90;;;;;;5049669;28;20044;-63
2023/06/15 06:19:09;;;;;;;6.80;3.85;;;17.40;84.50;;;;;;5030995;28;20041;-63
2023/06/15 06:21:34;;;;;;;5.75;3.47;;;17.40;84.20;;;;;;5036149;28;20457;-62
2023/06/15 06:24:00;;;;;;;6.03;3.42;;;17.50;84.10;;;;;;5050006;28;20226;-62
2023/06/15 06:26:26;;;;;;;7.50;3.40;;;17.50;84.10;;;;;;5050182;28;20040;-63
2023/06/15 06:28:52;;;;;;;6.35;3.22;;;17.50;83.80;;;;;;5049194;28;20041;-63
2023/06/15 06:31:18;;;;;;;7.18;3.15;;;17.50;83.60;;;;;;5038411;28;20041;-63
2023/06/15 06:33:44;;;;;;;9.68;3.55;;;17.60;83.10;;;;;;5045333;28;20047;-63
2023/06/15 06:36:09;;;;;;;6.30;3.97;;;17.60;82.60;;;;;;5047307;28;20039;-63
2023/06/15 06:38:36;;;;;;;5.47;3.28;;;17.70;82.60;;;;;;5050507;28;20045;-63
2023/06/15 06:41:02;;;;;;;6.28;3.40;;;17.70;82.00;;;;;;5025100;28;20053;-63
2023/06/15 06:43:27;;;;;;;7.93;3.03;;;17.70;81.70;;;;;;5049851;28;20052;-63
2023/06/15 06:45:53;;;;;;;6.95;3.50;;;17.80;81.40;;;;;;5057308;28;20045;-63
2023/06/15 06:48:19;;;;;;;6.38;3.30;;;17.80;81.30;;;;;;5029205;28;20471;-63
2023/06/15 06:50:45;;;;;;;6.50;3.25;;;17.90;81.30;;;;;;5059947;28;20130;-63
2023/06/15 06:53:11;;;;;;;6.18;3.20;;;17.90;81.00;;;;;;5050007;28;20116;-67
2023/06/15 06:55:37;;;;;;;7.32;3.20;;;18.00;80.60;;;;;;5051058;28;20172;-63
2023/06/15 06:58:03;;;;;;;6.97;3.72;;;18.00;80.30;;;;;;5042688;28;20041;-63
2023/06/15 07:00:29;;;;;;;8.05;3.63;;;18.10;80.00;;;;;;5051441;28;20388;-63
2023/06/15 07:02:55;;;;;;;9.77;3.45;;;18.20;79.40;;;;;;5049334;28;20040;-63
2023/06/15 07:05:21;;;;;;;8.07;3.15;;;18.20;79.10;;;;;;5041576;28;20025;-63
2023/06/15 07:07:47;;;;;;;7.47;3.45;;;18.20;79.00;;;;;;5014771;28;20156;-63
2023/06/15 07:10:13;;;;;;;7.00;3.50;;;18.30;78.80;;;;;;5031449;28;20498;-63
2023/06/15 07:12:39;;;;;;;4.65;3.17;;;18.30;78.50;;;;;;5036314;28;20033;-63
2023/06/15 07:15:05;;;;;;;7.00;3.40;;;18.30;78.10;;;;;;5059279;28;20064;-63
2023/06/15 07:17:31;;;;;;;7.30;3.40;;;18.40;77.80;;;;;;5046796;28;20038;-63
2023/06/15 07:19:57;;;;;;;8.32;3.47;;;18.50;77.60;;;;;;5045360;28;20331;-63
2023/06/15 07:22:23;;;;;;;10.95;3.35;;;18.60;77.50;;;;;;5056761;28;20037;-63
2023/06/15 07:24:52;;;;;;;8.18;3.15;;;18.60;77.20;;;;;;5055563;28;20072;-63
2023/06/15 07:27:19;;;;;;;11.30;3.55;;;18.80;77.00;;;;;;5055937;28;20117;-63
2023/06/15 07:29:45;;;;;;;7.57;3.15;;;18.80;76.80;;;;;;5052108;28;20045;-63
2023/06/15 07:32:11;;;;;;;7.35;3.60;;;19.00;77.10;;;;;;5042437;28;20090;-64
2023/06/15 07:34:36;;;;;;;8.85;3.22;;;19.00;76.70;;;;;;5058325;28;20048;-63
2023/06/15 07:37:02;;;;;;;6.18;3.22;;;19.10;76.10;;;;;;5053570;28;20032;-63
2023/06/15 07:39:28;;;;;;;6.63;3.20;;;19.10;76.00;;;;;;5057095;28;20036;-63
2023/06/15 07:41:54;;;;;;;10.63;3.40;;;19.20;75.80;;;;;;5049494;28;20033;-63
2023/06/15 07:44:19;;;;;;;5.93;3.20;;;19.20;74.60;;;;;;5054871;28;20029;-63
2023/06/15 07:46:45;;;;;;;9.13;3.20;;;19.30;74.00;;;;;;5056121;28;20522;-63
2023/06/15 07:49:11;;;;;;;9.40;4.13;;;19.30;73.60;;;;;;5065358;28;20041;-63
2023/06/15 07:51:37;;;;;;;8.30;3.20;;;19.40;73.40;;;;;;5055604;28;20047;-63
2023/06/15 07:54:02;;;;;;;5.07;2.90;;;19.50;72.90;;;;;;5058296;28;20040;-63
2023/06/15 07:56:28;;;;;;;7.80;3.47;;;19.50;73.00;;;;;;5053235;28;20490;-63
2023/06/15 07:58:54;;;;;;;9.85;3.42;;;19.60;72.20;;;;;;5038989;28;20041;-63
2023/06/15 08:01:20;;;;;;;6.03;3.30;;;19.60;71.50;;;;;;5040969;28;20107;-63
2023/06/15 08:03:45;;;;;;;5.57;3.25;;;19.60;71.00;;;;;;5057469;28;20041;-63
2023/06/15 08:06:11;;;;;;;11.70;3.42;;;19.70;71.10;;;;;;5056334;28;20025;-63
2023/06/15 08:08:37;;;;;;;10.00;3.65;;;19.80;71.10;;;;;;5065016;28;20067;-63
2023/06/15 08:11:05;;;;;;;6.53;3.25;;;20.00;71.00;;;;;;5055363;28;20123;-63
2023/06/15 08:13:31;;;;;;;5.40;2.88;;;20.10;70.70;;;;;;5041179;28;20048;-63
2023/06/15 08:15:58;;;;;;;8.48;3.40;;;20.20;69.90;;;;;;5053491;28;20128;-63
2023/06/15 08:18:23;;;;;;;8.25;2.95;;;20.40;69.70;;;;;;5052594;28;20051;-63
2023/06/15 08:20:49;;;;;;;6.72;2.97;;;20.60;69.80;;;;;;5043080;28;20037;-63
2023/06/15 08:23:15;;;;;;;8.02;2.85;;;20.90;69.50;;;;;;5052372;28;20033;-63
2023/06/15 08:25:41;;;;;;;7.47;3.08;;;21.20;68.50;;;;;;5048974;28;20403;-63
2023/06/15 08:28:07;;;;;;;8.30;3.00;;;21.50;67.40;;;;;;5055305;28;20041;-64
2023/06/15 08:30:32;;;;;;;8.05;3.22;;;21.70;66.70;;;;;;5041420;28;20407;-64
2023/06/15 08:32:58;;;;;;;9.43;2.88;;;22.10;66.40;;;;;;5066115;28;20478;-63
2023/06/15 08:35:24;;;;;;;8.50;3.08;;;22.40;65.50;;;;;;5056625;28;20036;-64
2023/06/15 08:37:49;;;;;;;8.65;2.90;;;22.70;64.40;;;;;;5063634;28;20037;-64
2023/06/15 08:40:15;;;;;;;5.10;2.90;;;23.00;63.30;;;;;;5051767;28;20455;-64
2023/06/15 08:42:41;;;;;;;4.57;2.97;;;23.20;62.20;;;;;;5042765;28;20041;-64
2023/06/15 08:45:07;;;;;;;4.97;2.70;;;23.50;61.60;;;;;;5054916;28;20502;-64
2023/06/15 08:47:36;;;;;;;4.93;2.78;;;23.70;60.70;;;;;;5062097;28;20552;-64
2023/06/15 08:50:06;;;;;;;8.13;2.72;;;24.00;59.80;;;;;;5045791;28;20667;-64
2023/06/15 08:52:35;;;;;;;5.10;2.90;;;24.20;58.20;;;;;;5052219;22;20048;-65
2023/06/15 08:55:02;;;;;;;7.63;3.20;;;24.40;57.50;;;;;;5051661;28;20042;-64
2023/06/15 08:57:29;;;;;;;5.63;2.80;;;24.60;56.40;;;;;;5031992;28;20041;-64
2023/06/15 09:00:17;;;;;;;6.35;3.08;;;24.80;55.90;;;;;;5016137;28;20045;-64
2023/06/15 09:02:46;;;;;;;6.70;2.70;;;25.00;53.10;;;;;;5010632;28;20057;-64
2023/06/15 09:08:52;;;;;;;4.65;3.42;;;25.40;51.70;;;;;;5041196;28;20548;-65
2023/06/15 09:11:18;;;;;;;3.90;2.72;;;25.70;53.40;;;;;;5032943;28;20033;-65
2023/06/15 09:17:14;;;;;;;6.43;2.88;;;26.00;50.80;;;;;;5318108;22;20036;-64
2023/06/15 09:19:40;;;;;;;6.28;3.00;;;26.10;50.20;;;;;;5055721;28;20053;-64
2023/06/15 09:22:07;;;;;;;4.80;2.75;;;26.20;50.70;;;;;;5074654;28;20036;-64
2023/06/15 09:24:39;;;;;;;4.85;2.90;;;26.40;49.80;;;;;;5055776;28;20127;-64
2023/06/15 09:27:25;;;;;;;5.13;2.80;;;26.60;49.20;;;;;;5016790;28;20120;-64
2023/06/15 09:30:05;;;;;;;5.20;2.67;;;26.90;47.30;;;;;;5033885;28;20457;-64
2023/06/15 09:32:31;;;;;;;5.05;2.83;;;26.90;47.80;;;;;;5024329;28;20479;-66
2023/06/15 09:35:46;;;;;;;5.03;2.70;;;26.90;48.30;;;;;;5048539;28;20172;-63
2023/06/15 09:38:12;;;;;;;7.65;3.00;;;27.10;47.60;;;;;;5049801;28;20394;-62
2023/06/15 09:40:40;;;;;;;4.20;2.67;;;27.20;48.90;;;;;;5031634;28;20041;-64
2023/06/15 09:43:06;;;;;;;3.33;2.40;;;27.30;47.90;;;;;;5031204;28;20037;-62
2023/06/15 09:45:31;;;;;;;6.32;3.22;;;27.50;47.50;;;;;;5023235;28;20047;-64
2023/06/15 09:47:57;;;;;;;6.65;2.90;;;27.60;46.90;;;;;;5035115;28;20112;-65
2023/06/15 09:50:29;;;;;;;6.68;2.70;;;27.70;46.80;;;;;;5045666;28;20040;-63
2023/06/15 09:52:57;;;;;;;5.63;2.90;;;27.90;45.80;;;;;;5050422;28;20502;-63
2023/06/15 09:55:24;;;;;;;7.30;3.10;;;28.00;45.90;;;;;;5051898;28;20033;-62
2023/06/15 09:57:52;;;;;;;3.72;2.97;;;28.00;45.80;;;;;;5052408;28;20108;-64
2023/06/15 10:00:18;;;;;;;5.38;2.97;;;28.10;46.00;;;;;;5041786;28;20399;-63
2023/06/15 10:02:46;;;;;;;5.35;3.13;;;28.20;45.80;;;;;;5055290;28;20070;-67
2023/06/15 10:05:14;;;;;;;4.93;2.95;;;28.20;46.00;;;;;;5042530;28;20033;-64
2023/06/15 10:07:48;;;;;;;5.55;3.20;;;28.20;46.20;;;;;;5052744;28;20080;-63
2023/06/15 10:10:16;;;;;;;7.50;3.20;;;28.20;45.80;;;;;;5055326;28;20501;-63
2023/06/15 10:12:45;;;;;;;5.90;3.22;;;28.30;45.80;;;;;;5055687;28;20041;-64
2023/06/15 10:15:14;;;;;;;5.25;3.10;;;28.40;45.80;;;;;;5039958;28;20037;-64
2023/06/15 10:17:46;;;;;;;5.53;3.17;;;28.50;46.00;;;;;;5032519;28;20159;-66
2023/06/15 10:20:17;;;;;;;4.97;3.10;;;28.60;45.70;;;;;;5052790;28;20048;-62
2023/06/15 10:23:09;;;;;;;5.90;3.22;;;28.70;45.50;;;;;;5055845;28;20060;-63
2023/06/15 10:25:38;;;;;;;5.43;3.08;;;28.80;45.60;;;;;;5042201;28;20048;-63
2023/06/15 10:28:09;;;;;;;7.30;3.25;;;28.80;46.40;;;;;;5049356;28;20406;-63
2023/06/15 10:31:07;;;;;;;4.30;3.05;;;28.90;45.80;;;;;;5050269;28;20121;-63
2023/06/15 10:33:49;;;;;;;3.63;2.70;;;29.00;44.70;;;;;;5036791;28;20052;-63
2023/06/15 10:36:24;;;;;;;4.82;2.80;;;29.00;44.80;;;;;;5052883;28;20090;-63
2023/06/15 10:39:21;;;;;;;4.90;2.97;;;29.10;45.40;;;;;;5027201;28;20432;-63
2023/06/15 10:41:50;;;;;;;4.57;3.13;;;29.20;43.50;;;;;;5057537;28;20041;-66
2023/06/15 10:44:16;;;;;;;6.95;2.83;;;29.10;44.60;;;;;;5056642;28;20029;-63
2023/06/15 10:46:41;;;;;;;7.57;3.63;;;29.20;44.60;;;;;;5057473;28;20040;-63
2023/06/15 10:49:09;;;;;;;4.05;3.03;;;29.30;44.20;;;;;;5050233;28;20045;-65
2023/06/15 10:51:39;;;;;;;3.28;2.90;;;29.40;43.90;;;;;;5053853;28;20084;-64
2023/06/15 10:54:20;;;;;;;5.18;3.33;;;29.60;43.70;;;;;;5044585;28;20517;-63
2023/06/15 10:56:50;;;;;;;;;;;29.60;44.20;;;;;;5044923;28;20055;-63
2023/06/15 10:59:39;;;;;;;5.43;3.03;;;29.70;44.40;;;;;;5026667;28;19916;-63
2023/06/15 11:02:27;;;;;;;5.93;3.30;;;29.90;43.60;;;;;;5051468;28;20460;-63
2023/06/15 11:05:10;;;;;;;6.03;3.30;;;30.00;43.40;;;;;;5053673;28;20125;-62
2023/06/15 11:07:37;;;;;;;5.28;2.95;;;30.00;43.90;;;;;;5033566;28;20057;-66
2023/06/15 11:10:13;;;;;;;6.22;3.20;;;30.20;43.90;;;;;;5030672;28;20045;-63
2023/06/15 11:12:44;;;;;;;4.35;2.80;;;30.20;42.80;;;;;;5036765;28;20037;-62
2023/06/15 11:15:12;;;;;;;4.90;2.90;;;30.30;41.90;;;;;;5043026;28;20047;-66
2023/06/15 11:17:54;;;;;;;4.68;3.00;;;30.20;42.10;;;;;;5037201;28;20043;-63
2023/06/15 11:20:38;;;;;;;5.50;3.25;;;30.30;40.50;;;;;;5049451;28;20043;-63
2023/06/15 11:23:45;;;;;;;6.18;3.17;;;30.30;41.00;;;;;;5047772;28;20406;-64
2023/06/15 11:26:14;;;;;;;7.57;3.78;;;30.30;40.50;;;;;;5039692;28;20037;-67
2023/06/15 11:28:41;;;;;;;4.20;3.38;;;30.30;41.60;;;;;;5042732;28;20091;-66
2023/06/15 11:31:07;;;;;;;4.13;3.35;;;30.30;41.80;;;;;;5039092;28;20040;-64
2023/06/15 11:33:39;;;;;;;6.00;3.33;;;30.30;41.70;;;;;;5036381;28;20051;-64
2023/06/15 11:36:07;;;;;;;5.70;3.30;;;30.40;42.00;;;;;;5029513;28;20434;-63
2023/06/15 11:38:33;;;;;;;5.43;3.28;;;30.50;42.20;;;;;;5046409;28;20064;-64
2023/06/15 11:41:04;;;;;;;3.88;2.85;;;30.50;42.00;;;;;;5047348;28;20148;-64
2023/06/15 11:43:52;;;;;;;4.85;2.97;;;30.60;41.20;;;;;;5046746;28;20072;-63
2023/06/15 11:46:22;;;;;;;5.40;3.20;;;30.70;42.10;;;;;;5039527;28;20570;-63
2023/06/15 11:48:49;;;;;;;9.23;2.97;;;30.80;41.40;;;;;;5053509;28;20071;-64
2023/06/15 11:53:43;;;;;;;3.95;3.08;;;30.90;41.10;;;;;;5048115;28;20103;-62
2023/06/15 11:56:16;;;;;;;4.93;2.83;;;30.90;41.20;;;;;;5055576;28;20029;-63
2023/06/15 11:58:47;;;;;;;5.63;3.20;;;30.90;40.70;;;;;;5027020;28;20049;-61
2023/06/15 12:01:14;;;;;;;8.70;3.10;;;30.90;40.90;;;;;;5040404;28;20037;-61
2023/06/15 12:03:48;;;;;;;8.55;2.92;;;30.90;41.30;;;;;;5039382;28;20410;-62
2023/06/15 12:06:20;;;;;;;6.90;3.15;;;31.00;40.40;;;;;;5044306;28;20036;-62
2023/06/15 12:08:50;;;;;;;5.47;3.13;;;31.00;40.40;;;;;;5038847;28;20041;-61
2023/06/15 12:11:20;;;;;;;6.28;3.38;;;31.00;40.80;;;;;;5037812;28;20033;-62
2023/06/15 12:13:45;;;;;;;6.30;2.77;;;31.00;40.20;;;;;;5045633;28;20558;-62
2023/06/15 12:16:11;;;;;;;6.25;3.22;;;31.00;40.90;;;;;;5060437;28;20374;-61
2023/06/15 12:18:36;;;;;;;3.55;2.90;;;31.10;40.40;;;;;;5045693;28;20042;-60
2023/06/15 12:21:03;;;;;;;8.50;3.08;;;31.00;40.30;;;;;;5026281;28;20432;-61
2023/06/15 12:23:33;;;;;;;3.78;2.70;;;31.10;40.30;;;;;;5041106;28;20033;-61
2023/06/15 12:26:03;;;;;;;3.95;3.20;;;31.00;40.00;;;;;;5049614;28;20517;-61
2023/06/15 12:28:59;;;;;;;6.30;3.10;;;30.90;39.60;;;;;;5022999;28;20411;-61
2023/06/15 12:31:34;;;;;;;5.97;2.80;;;31.00;39.50;;;;;;5045935;28;20124;-60
2023/06/15 12:34:06;;;;;;;6.47;2.95;;;30.90;39.70;;;;;;5040959;28;20103;-63
2023/06/15 12:36:32;;;;;;;5.78;3.08;;;30.90;40.10;;;;;;5045011;28;20060;-61
2023/06/15 12:39:11;;;;;;;4.82;2.72;;;30.90;40.10;;;;;;5045933;28;20498;-63
2023/06/15 12:41:42;;;;;;;6.00;3.20;;;31.00;39.70;;;;;;5050332;28;20033;-62
2023/06/15 12:44:11;;;;;;;6.95;3.00;;;30.90;39.60;;;;;;5054521;28;20044;-64
2023/06/15 12:46:39;;;;;;;4.95;3.00;;;30.90;39.40;;;;;;5043409;28;20036;-62
2023/06/15 12:49:06;;;;;;;6.07;3.17;;;30.90;39.90;;;;;;5044606;28;20049;-64
2023/06/15 12:51:32;;;;;;;5.03;2.90;;;30.90;40.30;;;;;;5027611;28;20479;-63
2023/06/15 12:53:57;;;;;;;5.40;2.83;;;30.90;40.40;;;;;;5044724;28;20099;-69
2023/06/15 12:56:27;;;;;;;3.83;3.03;;;31.00;40.20;;;;;;5043526;28;20474;-63
2023/06/15 12:58:53;;;;;;;6.00;2.97;;;31.00;40.10;;;;;;5039779;28;20064;-64
2023/06/15 13:01:20;;;;;;;6.30;2.80;;;31.00;40.00;;;;;;5042199;28;20039;-63